Station Historical Data
Daily Summary for January 11, 2017 Units:  English    Metric   Both
Next Day »
Daily Weekly Monthly Yearly Custom
  High: Low: Average:
Temperature: 43.9 °F 35.9 °F 40.3 °F
Dew Point: 43.1 °F 34.9 °F 39.5 °F
Humidity: 97% 96% 97%
Wind Speed: 23.0mph 0.0mph 5.6mph
Wind Gust: 30.0mph - -
Wind- - SSW
Pressure: 29.98 in 29.71 in -
Precipitation: 0.00 in    
Historical Graphs
 
 
Tabular Data for January 11, 2017
Time Temperature Dew Point Pressure Wind Wind Speed Wind Gust Humidity Rainfall Rate (Hourly) solar Conditions
00:03 43.9 °F 43.1 °F 29.72 in SW 1.0 mph 24.0 mph 97% 0.04 in 0.00 W/m2
00:08 43.8 °F 43.0 °F 29.72 in SSW 13.0 mph 18.0 mph 97% 0.00 in 0.00 W/m2
00:13 43.8 °F 43.0 °F 29.71 in SSE 15.0 mph 16.0 mph 97% 0.44 in 0.00 W/m2
00:18 43.7 °F 42.9 °F 29.71 in SSW 18.0 mph 21.0 mph 97% 0.34 in 0.00 W/m2
00:23 43.7 °F 42.9 °F 29.71 in SSW 10.0 mph 19.0 mph 97% 0.27 in 0.00 W/m2
00:28 43.7 °F 42.9 °F 29.71 in SSW 10.0 mph 24.0 mph 97% 0.27 in 0.00 W/m2
00:33 43.6 °F 42.8 °F 29.72 in Calm   21.0 mph 97% 0.30 in 0.00 W/m2
00:38 43.4 °F 42.6 °F 29.71 in SW 21.0 mph 30.0 mph 97% 0.22 in 0.00 W/m2
00:43 43.3 °F 42.5 °F 29.71 in SSW 11.0 mph 29.0 mph 97% 0.21 in 0.00 W/m2
00:48 43.2 °F 42.4 °F 29.73 in SSW 8.0 mph 22.0 mph 97% 0.54 in 0.00 W/m2
00:53 42.9 °F 42.1 °F 29.72 in SW 7.0 mph 17.0 mph 97% 1.18 in 0.00 W/m2
00:58 41.9 °F 41.1 °F 29.73 in West 5.0 mph 21.0 mph 97% 1.06 in 0.00 W/m2
01:03 41.1 °F 40.3 °F 29.74 in WSW 9.0 mph 21.0 mph 97% 0.19 in 0.00 W/m2
01:08 40.5 °F 39.5 °F 29.75 in WSW 11.0 mph 23.0 mph 96% 0.08 in 0.00 W/m2
01:13 40.7 °F 39.7 °F 29.75 in SSW 16.0 mph 21.0 mph 96% 0.08 in 0.00 W/m2
01:18 41.3 °F 40.2 °F 29.76 in West 13.0 mph 16.0 mph 96% 0.06 in 0.00 W/m2
01:23 41.8 °F 41.0 °F 29.76 in West 8.0 mph 22.0 mph 97% 0.04 in 0.00 W/m2
01:28 42.1 °F 41.3 °F 29.77 in WSW 17.0 mph 21.0 mph 97% 0.00 in 0.00 W/m2
01:33 42.4 °F 41.6 °F 29.77 in WSW 19.0 mph 24.0 mph 97% 0.00 in 0.00 W/m2
01:44 42.5 °F 41.7 °F 29.78 in SW 20.0 mph 21.0 mph 97% 0.00 in 0.00 W/m2
01:49 42.5 °F 41.7 °F 29.78 in Calm   19.0 mph 97% 0.00 in 0.00 W/m2
01:54 42.5 °F 41.7 °F 29.78 in SSW 1.0 mph 23.0 mph 97% 0.00 in 0.00 W/m2
01:59 42.4 °F 41.6 °F 29.78 in South 23.0 mph 25.0 mph 97% 0.00 in 0.00 W/m2
02:04 42.3 °F 41.5 °F 29.78 in Calm   26.0 mph 97% 0.00 in 0.00 W/m2
02:09 42.3 °F 41.5 °F 29.78 in SW 10.0 mph 23.0 mph 97% 0.00 in 0.00 W/m2
02:14 42.2 °F 41.4 °F 29.78 in WSW 1.0 mph 15.0 mph 97% 0.00 in 0.00 W/m2
02:19 42.3 °F 41.5 °F 29.78 in SSW 8.0 mph 24.0 mph 97% 0.00 in 0.00 W/m2
02:24 42.2 °F 41.4 °F 29.79 in South 18.0 mph 24.0 mph 97% 0.00 in 0.00 W/m2
02:29 42.2 °F 41.4 °F 29.79 in SW 6.0 mph 21.0 mph 97% 0.00 in 0.00 W/m2
02:34 42.2 °F 41.4 °F 29.79 in Calm   18.0 mph 97% 0.00 in 0.00 W/m2
02:39 42.2 °F 41.4 °F 29.80 in South 5.0 mph 20.0 mph 97% 0.00 in 0.00 W/m2
02:44 42.1 °F 41.3 °F 29.80 in SW 6.0 mph 18.0 mph 97% 0.00 in 0.00 W/m2
02:49 42.1 °F 41.3 °F 29.80 in SSW 11.0 mph 20.0 mph 97% 0.00 in 0.00 W/m2
02:54 42.1 °F 41.3 °F 29.80 in SW 6.0 mph 21.0 mph 97% 0.00 in 0.00 W/m2
02:59 42.0 °F 41.2 °F 29.80 in SSW 7.0 mph 23.0 mph 97% 0.00 in 0.00 W/m2
03:04 42.0 °F 41.2 °F 29.80 in SW 8.0 mph 18.0 mph 97% 0.00 in 0.00 W/m2
03:09 42.0 °F 41.2 °F 29.80 in SSW 6.0 mph 23.0 mph 97% 0.00 in 0.00 W/m2
03:14 42.0 °F 41.2 °F 29.81 in SSW 9.0 mph 21.0 mph 97% 0.00 in 0.00 W/m2
03:19 42.0 °F 41.2 °F 29.81 in SSW 12.0 mph 17.0 mph 97% 0.00 in 0.00 W/m2
03:24 42.0 °F 41.2 °F 29.81 in Calm   19.0 mph 97% 0.00 in 0.00 W/m2
03:29 42.0 °F 41.2 °F 29.81 in WSW 10.0 mph 15.0 mph 97% 0.00 in 0.00 W/m2
03:34 42.0 °F 41.2 °F 29.81 in South 14.0 mph 16.0 mph 97% 0.18 in 0.00 W/m2
03:39 42.0 °F 41.2 °F 29.81 in SSW 10.0 mph 14.0 mph 97% 0.12 in 0.00 W/m2
03:44 41.9 °F 41.1 °F 29.81 in SSW 14.0 mph 15.0 mph 97% 0.07 in 0.00 W/m2
03:49 41.9 °F 41.1 °F 29.81 in SSW 12.0 mph 15.0 mph 97% 0.07 in 0.00 W/m2
03:54 41.8 °F 41.0 °F 29.81 in SSE 8.0 mph 24.0 mph 97% 0.08 in 0.00 W/m2
03:59 41.8 °F 41.0 °F 29.81 in SSW 5.0 mph 15.0 mph 97% 0.06 in 0.00 W/m2
04:04 41.7 °F 40.9 °F 29.81 in SSW 8.0 mph 18.0 mph 97% 0.04 in 0.00 W/m2
04:09 41.7 °F 40.9 °F 29.82 in SW 9.0 mph 18.0 mph 97% 0.00 in 0.00 W/m2
04:14 41.6 °F 40.8 °F 29.81 in SSW 2.0 mph 9.0 mph 97% 0.00 in 0.00 W/m2
04:19 41.7 °F 40.9 °F 29.81 in SSW 5.0 mph 10.0 mph 97% 0.00 in 0.00 W/m2
04:24 41.7 °F 40.9 °F 29.81 in South 15.0 mph 15.0 mph 97% 0.00 in 0.00 W/m2
04:29 41.7 °F 40.9 °F 29.81 in South 4.0 mph 15.0 mph 97% 0.00 in 0.00 W/m2
04:34 41.7 °F 40.9 °F 29.81 in SSW 6.0 mph 19.0 mph 97% 0.00 in 0.00 W/m2
04:39 41.7 °F 40.9 °F 29.81 in South 11.0 mph 18.0 mph 97% 0.00 in 0.00 W/m2
04:44 41.7 °F 40.9 °F 29.81 in SSW 2.0 mph 14.0 mph 97% 0.00 in 0.00 W/m2
04:49 41.7 °F 40.9 °F 29.81 in Calm   11.0 mph 97% 0.00 in 0.00 W/m2
04:53 41.7 °F 40.9 °F 29.81 in SSW 8.0 mph 11.0 mph 97% 0.00 in 0.00 W/m2
04:58 41.8 °F 41.0 °F 29.81 in WSW 9.0 mph 19.0 mph 97% 0.00 in 0.00 W/m2
05:03 41.8 °F 41.0 °F 29.81 in SSW 5.0 mph 12.0 mph 97% 0.00 in 0.00 W/m2
05:08 41.8 °F 41.0 °F 29.81 in SSW 8.0 mph 12.0 mph 97% 0.00 in 0.00 W/m2
05:13 41.8 °F 41.0 °F 29.81 in SSW 4.0 mph 12.0 mph 97% 0.00 in 0.00 W/m2
05:18 41.8 °F 41.0 °F 29.81 in SW 5.0 mph 12.0 mph 97% 0.00 in 0.00 W/m2
05:23 41.8 °F 41.0 °F 29.81 in WSW 9.0 mph 9.0 mph 97% 0.00 in 0.00 W/m2
05:28 41.8 °F 41.0 °F 29.81 in Calm   14.0 mph 97% 0.00 in 0.00 W/m2
05:33 41.8 °F 41.0 °F 29.81 in SW 8.0 mph 9.0 mph 97% 0.08 in 0.00 W/m2
05:38 41.7 °F 40.9 °F 29.81 in SSW 9.0 mph 14.0 mph 97% 0.07 in 0.00 W/m2
05:43 41.7 °F 40.9 °F 29.81 in Calm   10.0 mph 97% 0.05 in 0.00 W/m2
05:48 41.7 °F 40.9 °F 29.82 in SW 12.0 mph 16.0 mph 97% 0.20 in 0.00 W/m2
05:53 41.6 °F 40.8 °F 29.82 in SW 13.0 mph 18.0 mph 97% 0.09 in 0.00 W/m2
05:58 41.5 °F 40.7 °F 29.83 in Calm   11.0 mph 97% 0.05 in 0.00 W/m2
06:03 41.5 °F 40.7 °F 29.83 in SW 8.0 mph 11.0 mph 97% 0.04 in 0.00 W/m2
06:08 41.4 °F 40.6 °F 29.83 in SSW 5.0 mph 7.0 mph 97% 0.00 in 0.00 W/m2
06:13 41.3 °F 40.5 °F 29.83 in SSW 11.0 mph 13.0 mph 97% 0.00 in 0.00 W/m2
06:18 41.3 °F 40.5 °F 29.83 in SW 10.0 mph 17.0 mph 97% 0.00 in 0.00 W/m2
06:23 41.3 °F 40.5 °F 29.83 in WSW 8.0 mph 14.0 mph 97% 0.00 in 0.00 W/m2
06:28 41.2 °F 40.4 °F 29.83 in SW 5.0 mph 11.0 mph 97% 0.00 in 0.00 W/m2
06:33 41.3 °F 40.5 °F 29.84 in SW 6.0 mph 16.0 mph 97% 0.00 in 0.00 W/m2
06:38 41.2 °F 40.4 °F 29.84 in SW 6.0 mph 12.0 mph 97% 0.00 in 0.00 W/m2
06:43 41.3 °F 40.5 °F 29.84 in SW 12.0 mph 15.0 mph 97% 0.00 in 0.00 W/m2
06:48 41.3 °F 40.5 °F 29.84 in SSW 12.0 mph 12.0 mph 97% 0.00 in 0.00 W/m2
06:53 41.2 °F 40.4 °F 29.84 in SW 9.0 mph 13.0 mph 97% 0.00 in 0.00 W/m2
06:58 41.2 °F 40.4 °F 29.85 in WSW 7.0 mph 14.0 mph 97% 0.00 in 0.00 W/m2
07:03 41.1 °F 40.3 °F 29.85 in SSW 13.0 mph 14.0 mph 97% 0.00 in 0.00 W/m2
07:08 41.0 °F 40.2 °F 29.85 in Calm   7.0 mph 97% 0.00 in 0.00 W/m2
07:13 40.9 °F 40.1 °F 29.85 in SW 4.0 mph 12.0 mph 97% 0.00 in 0.00 W/m2
07:18 41.0 °F 40.2 °F 29.85 in Calm   13.0 mph 97% 0.00 in 0.00 W/m2
07:23 40.9 °F 40.1 °F 29.85 in SSW 4.0 mph 8.0 mph 97% 0.00 in 0.00 W/m2
07:28 40.9 °F 40.1 °F 29.86 in SSE 6.0 mph 10.0 mph 97% 0.00 in 0.00 W/m2
07:33 41.0 °F 40.2 °F 29.85 in SW 9.0 mph 12.0 mph 97% 0.00 in 0.00 W/m2
07:34 41.0 °F 40.2 °F 29.85 in South 6.0 mph 12.0 mph 97% 0.00 in 0.00 W/m2
07:39 41.0 °F 40.2 °F 29.85 in SSW 9.0 mph 13.0 mph 97% 0.00 in 0.00 W/m2
07:45 40.9 °F 40.1 °F 29.86 in SSE 13.0 mph 18.0 mph 97% 0.00 in 5.00 W/m2
07:50 40.9 °F 40.1 °F 29.86 in South 5.0 mph 14.0 mph 97% 0.00 in 5.00 W/m2
07:55 40.8 °F 40.0 °F 29.86 in SSW 8.0 mph 16.0 mph 97% 0.00 in 16.00 W/m2
08:00 40.7 °F 39.9 °F 29.86 in SSW 5.0 mph 15.0 mph 97% 0.00 in 9.00 W/m2
08:05 40.7 °F 39.9 °F 29.86 in South 4.0 mph 14.0 mph 97% 0.00 in 7.00 W/m2
08:10 40.7 °F 39.9 °F 29.87 in Calm   14.0 mph 97% 0.00 in 11.00 W/m2
08:15 40.6 °F 39.8 °F 29.87 in SW 9.0 mph 13.0 mph 97% 0.00 in 25.00 W/m2
08:20 40.5 °F 39.7 °F 29.87 in SSW 7.0 mph 11.0 mph 97% 0.00 in 26.00 W/m2
08:25 40.4 °F 39.6 °F 29.87 in SW 8.0 mph 11.0 mph 97% 0.00 in 33.00 W/m2
08:30 40.3 °F 39.5 °F 29.88 in WSW 11.0 mph 11.0 mph 97% 0.00 in 25.00 W/m2
08:35 40.2 °F 39.4 °F 29.88 in Calm   9.0 mph 97% 0.00 in 25.00 W/m2
08:40 40.2 °F 39.4 °F 29.88 in WSW 5.0 mph 12.0 mph 97% 0.00 in 23.00 W/m2
08:45 40.2 °F 39.4 °F 29.88 in Calm   12.0 mph 97% 0.04 in 11.00 W/m2
08:50 40.2 °F 39.4 °F 29.88 in SSW 19.0 mph 20.0 mph 97% 0.09 in 28.00 W/m2
08:55 40.2 °F 39.4 °F 29.89 in WSW 15.0 mph 15.0 mph 97% 0.08 in 28.00 W/m2
09:00 40.3 °F 39.5 °F 29.89 in SW 6.0 mph 15.0 mph 97% 0.08 in 39.00 W/m2
09:05 40.3 °F 39.5 °F 29.89 in SW 6.0 mph 16.0 mph 97% 0.13 in 39.00 W/m2
09:10 40.3 °F 39.5 °F 29.89 in SW 7.0 mph 13.0 mph 97% 0.06 in 25.00 W/m2
09:15 40.4 °F 39.6 °F 29.89 in SW 6.0 mph 14.0 mph 97% 0.04 in 37.00 W/m2
09:20 40.5 °F 39.7 °F 29.89 in SSE 11.0 mph 14.0 mph 97% 0.00 in 39.00 W/m2
09:25 40.6 °F 39.8 °F 29.89 in South 7.0 mph 15.0 mph 97% 0.00 in 42.00 W/m2
09:30 40.6 °F 39.8 °F 29.89 in SSW 4.0 mph 12.0 mph 97% 0.00 in 30.00 W/m2
09:35 40.7 °F 39.9 °F 29.90 in SW 8.0 mph 15.0 mph 97% 0.00 in 100.00 W/m2
09:40 40.7 °F 39.9 °F 29.90 in South 10.0 mph 16.0 mph 97% 0.00 in 158.00 W/m2
09:45 40.7 °F 39.9 °F 29.91 in Calm   12.0 mph 97% 0.00 in 60.00 W/m2
09:50 40.8 °F 40.0 °F 29.91 in South 12.0 mph 13.0 mph 97% 0.00 in 77.00 W/m2
09:55 40.9 °F 40.1 °F 29.91 in SSW 8.0 mph 16.0 mph 97% 0.00 in 91.00 W/m2
10:00 40.9 °F 40.1 °F 29.91 in SSW 5.0 mph 11.0 mph 97% 0.00 in 63.00 W/m2
10:05 40.9 °F 40.1 °F 29.91 in SSW 5.0 mph 12.0 mph 97% 0.00 in 54.00 W/m2
10:10 40.9 °F 40.1 °F 29.91 in SSW 5.0 mph 11.0 mph 97% 0.00 in 74.00 W/m2
10:15 40.9 °F 40.1 °F 29.92 in SSW 7.0 mph 17.0 mph 97% 0.00 in 47.00 W/m2
10:20 40.9 °F 40.1 °F 29.92 in South 10.0 mph 18.0 mph 97% 0.00 in 174.00 W/m2
10:25 41.0 °F 40.2 °F 29.92 in SW 7.0 mph 14.0 mph 97% 0.00 in 91.00 W/m2
10:30 41.1 °F 40.3 °F 29.92 in SW 8.0 mph 15.0 mph 97% 0.00 in 113.00 W/m2
10:35 41.1 °F 40.3 °F 29.92 in SW 10.0 mph 12.0 mph 97% 0.00 in 74.00 W/m2
10:40 41.2 °F 40.4 °F 29.93 in Calm   11.0 mph 97% 0.00 in 100.00 W/m2
10:45 41.3 °F 40.5 °F 29.93 in SSW 5.0 mph 19.0 mph 97% 0.00 in 167.00 W/m2
10:50 41.3 °F 40.5 °F 29.93 in SW 12.0 mph 16.0 mph 97% 0.00 in 149.00 W/m2
10:55 41.3 °F 40.5 °F 29.93 in SW 9.0 mph 21.0 mph 97% 0.00 in 84.00 W/m2
11:00 41.2 °F 40.4 °F 29.93 in SW 9.0 mph 17.0 mph 97% 0.00 in 70.00 W/m2
11:05 41.1 °F 40.3 °F 29.94 in SW 8.0 mph 20.0 mph 97% 0.00 in 90.00 W/m2
11:10 40.9 °F 40.1 °F 29.94 in SSW 4.0 mph 14.0 mph 97% 0.00 in 125.00 W/m2
11:15 40.7 °F 39.9 °F 29.93 in South 15.0 mph 16.0 mph 97% 0.00 in 144.00 W/m2
11:20 40.7 °F 39.9 °F 29.93 in Calm   20.0 mph 97% 0.00 in 139.00 W/m2
11:25 40.7 °F 39.9 °F 29.93 in South 5.0 mph 20.0 mph 97% 0.00 in 132.00 W/m2
11:30 40.7 °F 39.9 °F 29.93 in SW 10.0 mph 19.0 mph 97% 0.00 in 176.00 W/m2
11:36 40.6 °F 39.8 °F 29.93 in South 1.0 mph 15.0 mph 97% 0.00 in 176.00 W/m2
11:41 40.6 °F 39.8 °F 29.93 in SW 9.0 mph 13.0 mph 97% 0.00 in 67.00 W/m2
11:46 40.6 °F 39.8 °F 29.93 in South 5.0 mph 16.0 mph 97% 0.00 in 135.00 W/m2
11:51 40.6 °F 39.8 °F 29.93 in SSW 9.0 mph 18.0 mph 97% 0.00 in 156.00 W/m2
11:56 40.6 °F 39.8 °F 29.93 in SW 6.0 mph 12.0 mph 97% 0.00 in 98.00 W/m2
12:01 40.6 °F 39.8 °F 29.93 in SW 8.0 mph 14.0 mph 97% 0.00 in 121.00 W/m2
12:06 40.6 °F 39.8 °F 29.94 in South 4.0 mph 14.0 mph 97% 0.14 in 116.00 W/m2
12:11 40.5 °F 39.7 °F 29.94 in SW 7.0 mph 14.0 mph 97% 0.06 in 165.00 W/m2
12:16 40.5 °F 39.7 °F 29.94 in SSW 12.0 mph 17.0 mph 97% 0.04 in 113.00 W/m2
12:21 40.5 °F 39.7 °F 29.93 in SSW 9.0 mph 14.0 mph 97% 0.00 in 109.00 W/m2
12:26 40.4 °F 39.6 °F 29.94 in West 10.0 mph 15.0 mph 97% 0.00 in 88.00 W/m2
12:31 40.4 °F 39.6 °F 29.94 in SW 7.0 mph 13.0 mph 97% 0.14 in 214.00 W/m2
12:36 40.4 °F 39.6 °F 29.94 in SW 4.0 mph 8.0 mph 97% 0.10 in 197.00 W/m2
12:41 40.5 °F 39.7 °F 29.94 in SW 10.0 mph 10.0 mph 97% 0.05 in 139.00 W/m2
12:46 40.6 °F 39.8 °F 29.94 in South 5.0 mph 15.0 mph 97% 0.04 in 118.00 W/m2
12:51 40.7 °F 39.9 °F 29.94 in South 6.0 mph 15.0 mph 97% 0.00 in 225.00 W/m2
12:56 40.9 °F 40.1 °F 29.94 in Calm   10.0 mph 97% 0.00 in 221.00 W/m2
13:01 41.0 °F 40.2 °F 29.93 in SW 4.0 mph 13.0 mph 97% 0.00 in 443.00 W/m2
13:06 41.1 °F 40.3 °F 29.93 in SW 2.0 mph 11.0 mph 97% 0.00 in 121.00 W/m2
13:11 41.2 °F 40.4 °F 29.93 in SW 7.0 mph 11.0 mph 97% 0.00 in 121.00 W/m2
13:16 41.2 °F 40.4 °F 29.93 in SSW 6.0 mph 11.0 mph 97% 0.00 in 127.00 W/m2
13:21 41.1 °F 40.3 °F 29.94 in Calm   10.0 mph 97% 0.00 in 113.00 W/m2
13:26 41.1 °F 40.3 °F 29.93 in SSW 6.0 mph 14.0 mph 97% 0.00 in 192.00 W/m2
13:31 41.1 °F 40.3 °F 29.93 in South 3.0 mph 13.0 mph 97% 0.00 in 142.00 W/m2
13:36 41.1 °F 40.3 °F 29.93 in SSW 11.0 mph 12.0 mph 97% 0.00 in 153.00 W/m2
13:41 41.1 °F 40.3 °F 29.93 in SSW 4.0 mph 14.0 mph 97% 0.00 in 193.00 W/m2
13:46 41.0 °F 40.2 °F 29.93 in SSW 3.0 mph 12.0 mph 97% 0.00 in 160.00 W/m2
13:51 40.9 °F 40.1 °F 29.94 in SW 2.0 mph 13.0 mph 97% 0.00 in 167.00 W/m2
13:56 40.8 °F 40.0 °F 29.94 in SW 3.0 mph 15.0 mph 97% 0.00 in 128.00 W/m2
14:01 40.8 °F 40.0 °F 29.94 in SSW 4.0 mph 10.0 mph 97% 0.00 in 146.00 W/m2
14:06 40.8 °F 40.0 °F 29.94 in South 8.0 mph 11.0 mph 97% 0.00 in 104.00 W/m2
14:11 40.7 °F 39.9 °F 29.94 in SW 6.0 mph 6.0 mph 97% 0.00 in 65.00 W/m2
14:16 40.6 °F 39.8 °F 29.93 in Calm   11.0 mph 97% 0.00 in 69.00 W/m2
14:21 40.6 °F 39.8 °F 29.94 in Calm   10.0 mph 97% 0.00 in 84.00 W/m2
14:26 40.6 °F 39.8 °F 29.94 in Calm   1.0 mph 97% 0.00 in 58.00 W/m2
14:31 40.6 °F 39.8 °F 29.94 in South 5.0 mph 11.0 mph 97% 0.00 in 98.00 W/m2
14:36 40.6 °F 39.8 °F 29.94 in Calm   9.0 mph 97% 0.00 in 120.00 W/m2
14:41 40.6 °F 39.8 °F 29.94 in SSW 6.0 mph 9.0 mph 97% 0.00 in 81.00 W/m2
14:46 40.6 °F 39.8 °F 29.94 in SSW 3.0 mph 10.0 mph 97% 0.00 in 107.00 W/m2
14:51 40.7 °F 39.9 °F 29.94 in South 6.0 mph 10.0 mph 97% 0.00 in 100.00 W/m2
14:56 40.7 °F 39.9 °F 29.94 in SSW 7.0 mph 14.0 mph 97% 0.00 in 121.00 W/m2
15:01 40.6 °F 39.8 °F 29.94 in South 10.0 mph 12.0 mph 97% 0.00 in 123.00 W/m2
15:06 40.6 °F 39.8 °F 29.94 in SSW 8.0 mph 12.0 mph 97% 0.00 in 137.00 W/m2
15:11 40.5 °F 39.7 °F 29.94 in SSW 7.0 mph 11.0 mph 97% 0.00 in 93.00 W/m2
15:16 40.4 °F 39.6 °F 29.94 in Calm   10.0 mph 97% 0.00 in 116.00 W/m2
15:21 40.4 °F 39.6 °F 29.94 in SSW 3.0 mph 10.0 mph 97% 0.00 in 97.00 W/m2
15:26 40.4 °F 39.6 °F 29.95 in SSW 1.0 mph 8.0 mph 97% 0.00 in 90.00 W/m2
15:31 40.4 °F 39.6 °F 29.95 in SSW 7.0 mph 7.0 mph 97% 0.00 in 114.00 W/m2
15:36 40.4 °F 39.6 °F 29.95 in SSE 7.0 mph 9.0 mph 97% 0.00 in 60.00 W/m2
15:41 40.4 °F 39.6 °F 29.95 in Calm     97% 0.00 in 35.00 W/m2
15:46 40.4 °F 39.6 °F 29.95 in Calm     97% 0.00 in 69.00 W/m2
15:51 40.3 °F 39.5 °F 29.95 in South 8.0 mph 9.0 mph 97% 0.00 in 47.00 W/m2
15:56 40.3 °F 39.5 °F 29.95 in SSW 8.0 mph 8.0 mph 97% 0.00 in 74.00 W/m2
16:01 40.3 °F 39.5 °F 29.95 in SSE 8.0 mph 13.0 mph 97% 0.00 in 54.00 W/m2
16:06 40.2 °F 39.4 °F 29.95 in South 5.0 mph 6.0 mph 97% 0.00 in 49.00 W/m2
16:11 40.2 °F 39.4 °F 29.95 in Calm     97% 0.00 in 23.00 W/m2
16:16 40.1 °F 39.3 °F 29.95 in SSW 6.0 mph 8.0 mph 97% 0.00 in 32.00 W/m2
16:21 40.0 °F 39.2 °F 29.95 in South 5.0 mph 6.0 mph 97% 0.00 in 33.00 W/m2
16:26 40.0 °F 39.2 °F 29.95 in South 6.0 mph 7.0 mph 97% 0.00 in 23.00 W/m2
16:31 39.9 °F 39.1 °F 29.96 in SSW 2.0 mph 5.0 mph 97% 0.00 in 12.00 W/m2
16:36 39.8 °F 39.0 °F 29.96 in South 2.0 mph 3.0 mph 97% 0.00 in 7.00 W/m2
16:41 39.7 °F 38.9 °F 29.96 in South 6.0 mph 10.0 mph 97% 0.00 in 9.00 W/m2
16:46 39.7 °F 38.9 °F 29.95 in SSE 7.0 mph 10.0 mph 97% 0.00 in 12.00 W/m2
16:51 39.7 °F 38.9 °F 29.95 in South 8.0 mph 9.0 mph 97% 0.00 in 7.00 W/m2
16:56 39.7 °F 38.9 °F 29.96 in South 8.0 mph 12.0 mph 97% 0.00 in 0.00 W/m2
17:01 39.7 °F 38.9 °F 29.96 in SSE 9.0 mph 11.0 mph 97% 0.00 in 0.00 W/m2
17:06 39.6 °F 38.8 °F 29.95 in South 4.0 mph 5.0 mph 97% 0.00 in 0.00 W/m2
17:11 39.6 °F 38.8 °F 29.96 in SSE 2.0 mph 9.0 mph 97% 0.00 in 0.00 W/m2
17:16 39.5 °F 38.7 °F 29.96 in SE 4.0 mph 8.0 mph 97% 0.00 in 0.00 W/m2
17:21 39.5 °F 38.7 °F 29.96 in South 10.0 mph 11.0 mph 97% 0.00 in 0.00 W/m2
17:27 39.5 °F 38.7 °F 29.96 in South 5.0 mph 10.0 mph 97% 0.00 in 0.00 W/m2
17:32 39.5 °F 38.7 °F 29.96 in South 7.0 mph 11.0 mph 97% 0.00 in 0.00 W/m2
17:37 39.3 °F 38.5 °F 29.96 in SSE 2.0 mph 6.0 mph 97% 0.00 in 0.00 W/m2
17:42 39.3 °F 38.5 °F 29.96 in Calm     97% 0.00 in 0.00 W/m2
17:47 39.3 °F 38.5 °F 29.96 in South 1.0 mph 7.0 mph 97% 0.00 in 0.00 W/m2
17:52 39.3 °F 38.5 °F 29.96 in Calm   4.0 mph 97% 0.00 in 0.00 W/m2
17:57 39.2 °F 38.2 °F 29.96 in South 5.0 mph 5.0 mph 96% 0.00 in 0.00 W/m2
18:02 39.2 °F 38.2 °F 29.97 in SSE 7.0 mph 10.0 mph 96% 0.00 in 0.00 W/m2
18:07 39.1 °F 38.1 °F 29.96 in SSW 3.0 mph 5.0 mph 96% 0.00 in 0.00 W/m2
18:12 39.1 °F 38.1 °F 29.97 in SSE 5.0 mph 7.0 mph 96% 0.00 in 0.00 W/m2
18:17 39.1 °F 38.1 °F 29.97 in South 6.0 mph 7.0 mph 96% 0.00 in 0.00 W/m2
18:22 39.1 °F 38.1 °F 29.97 in South 7.0 mph 7.0 mph 96% 0.00 in 0.00 W/m2
18:27 39.1 °F 38.1 °F 29.97 in South 7.0 mph 7.0 mph 96% 0.00 in 0.00 W/m2
18:32 39.0 °F 38.0 °F 29.97 in SSE 4.0 mph 8.0 mph 96% 0.00 in 0.00 W/m2
18:37 39.0 °F 38.0 °F 29.97 in Calm     96% 0.00 in 0.00 W/m2
18:42 38.9 °F 37.9 °F 29.97 in SSE 4.0 mph 9.0 mph 96% 0.00 in 0.00 W/m2
18:47 38.9 °F 37.9 °F 29.97 in SE 5.0 mph 11.0 mph 96% 0.00 in 0.00 W/m2
18:52 38.9 °F 37.9 °F 29.96 in SE 2.0 mph 8.0 mph 96% 0.00 in 0.00 W/m2
18:57 38.8 °F 37.8 °F 29.96 in Calm     96% 0.00 in 0.00 W/m2
19:02 38.8 °F 37.8 °F 29.96 in SSE 5.0 mph 7.0 mph 96% 0.00 in 0.00 W/m2
19:07 38.6 °F 37.6 °F 29.97 in SSE 1.0 mph 5.0 mph 96% 0.00 in 0.00 W/m2
19:12 38.6 °F 37.6 °F 29.96 in Calm     96% 0.00 in 0.00 W/m2
19:17 38.6 °F 37.6 °F 29.96 in SSE 2.0 mph 4.0 mph 96% 0.00 in 0.00 W/m2
19:22 38.6 °F 37.6 °F 29.96 in Calm   1.0 mph 96% 0.00 in 0.00 W/m2
19:27 38.6 °F 37.6 °F 29.96 in Calm     96% 0.00 in 0.00 W/m2
19:32 38.6 °F 37.6 °F 29.96 in Calm     96% 0.00 in 0.00 W/m2
19:37 38.6 °F 37.6 °F 29.96 in Calm     96% 0.00 in 0.00 W/m2
19:42 38.6 °F 37.6 °F 29.96 in Calm     96% 0.00 in 0.00 W/m2
19:47 38.6 °F 37.6 °F 29.96 in Calm     96% 0.00 in 0.00 W/m2
19:52 38.6 °F 37.6 °F 29.97 in Calm     96% 0.00 in 0.00 W/m2
19:57 38.6 °F 37.6 °F 29.97 in Calm     96% 0.00 in 0.00 W/m2
20:02 38.6 °F 37.6 °F 29.97 in Calm     96% 0.00 in 0.00 W/m2
20:07 38.5 °F 37.5 °F 29.97 in Calm     96% 0.00 in 0.00 W/m2
20:12 38.5 °F 37.5 °F 29.97 in Calm     96% 0.00 in 0.00 W/m2
20:17 38.5 °F 37.5 °F 29.97 in SSE 5.0 mph 9.0 mph 96% 0.00 in 0.00 W/m2
20:22 38.5 °F 37.5 °F 29.97 in South 7.0 mph 8.0 mph 96% 0.00 in 0.00 W/m2
20:27 38.4 °F 37.4 °F 29.98 in SSE 4.0 mph 8.0 mph 96% 0.00 in 0.00 W/m2
20:32 38.4 °F 37.4 °F 29.98 in SSE 6.0 mph 8.0 mph 96% 0.00 in 0.00 W/m2
20:37 38.4 °F 37.4 °F 29.98 in SSE 4.0 mph 7.0 mph 96% 0.00 in 0.00 W/m2
20:42 38.3 °F 37.3 °F 29.98 in SSE 6.0 mph 7.0 mph 96% 0.00 in 0.00 W/m2
20:47 38.3 °F 37.3 °F 29.97 in SSE 2.0 mph 5.0 mph 96% 0.00 in 0.00 W/m2
20:52 38.3 °F 37.3 °F 29.97 in SSE 6.0 mph 9.0 mph 96% 0.00 in 0.00 W/m2
20:57 38.3 °F 37.3 °F 29.97 in SSE 5.0 mph 8.0 mph 96% 0.00 in 0.00 W/m2
21:02 38.3 °F 37.3 °F 29.97 in SSE 1.0 mph 9.0 mph 96% 0.00 in 0.00 W/m2
21:07 38.3 °F 37.3 °F 29.97 in SSE 4.0 mph 9.0 mph 96% 0.00 in 0.00 W/m2
21:12 38.3 °F 37.3 °F 29.97 in Calm   9.0 mph 96% 0.00 in 0.00 W/m2
21:17 38.2 °F 37.2 °F 29.97 in SSE 6.0 mph 9.0 mph 96% 0.00 in 0.00 W/m2
21:22 38.2 °F 37.2 °F 29.97 in Calm   6.0 mph 96% 0.00 in 0.00 W/m2
21:28 38.1 °F 37.1 °F 29.97 in SSE 2.0 mph 8.0 mph 96% 0.00 in 0.00 W/m2
21:33 38.0 °F 37.0 °F 29.97 in Calm     96% 0.00 in 0.00 W/m2
21:38 37.9 °F 36.9 °F 29.97 in Calm     96% 0.00 in 0.00 W/m2
21:43 37.8 °F 36.8 °F 29.97 in Calm     96% 0.00 in 0.00 W/m2
21:48 37.7 °F 36.7 °F 29.97 in Calm   5.0 mph 96% 0.00 in 0.00 W/m2
21:53 37.6 °F 36.6 °F 29.97 in Calm     96% 0.00 in 0.00 W/m2
21:58 37.5 °F 36.5 °F 29.97 in Calm     96% 0.00 in 0.00 W/m2
22:03 37.4 °F 36.4 °F 29.97 in SE 4.0 mph 7.0 mph 96% 0.00 in 0.00 W/m2
22:08 37.3 °F 36.3 °F 29.97 in ESE 1.0 mph 7.0 mph 96% 0.00 in 0.00 W/m2
22:13 37.2 °F 36.2 °F 29.96 in Calm   1.0 mph 96% 0.00 in 0.00 W/m2
22:18 37.2 °F 36.2 °F 29.96 in Calm     96% 0.00 in 0.00 W/m2
22:23 37.2 °F 36.2 °F 29.96 in Calm     96% 0.00 in 0.00 W/m2
22:28 37.1 °F 36.1 °F 29.96 in Calm     96% 0.00 in 0.00 W/m2
22:33 37.1 °F 36.1 °F 29.96 in Calm     96% 0.00 in 0.00 W/m2
22:38 37.1 °F 36.1 °F 29.96 in Calm     96% 0.00 in 0.00 W/m2
22:43 37.1 °F 36.1 °F 29.96 in Calm     96% 0.00 in 0.00 W/m2
22:48 37.0 °F 36.0 °F 29.96 in Calm     96% 0.00 in 0.00 W/m2
22:53 37.0 °F 36.0 °F 29.96 in ESE 7.0 mph 11.0 mph 96% 0.00 in 0.00 W/m2
22:58 37.0 °F 36.0 °F 29.95 in Calm   8.0 mph 96% 0.00 in 0.00 W/m2
23:03 37.0 °F 36.0 °F 29.95 in Calm   5.0 mph 96% 0.00 in 0.00 W/m2
23:08 36.9 °F 35.9 °F 29.96 in ESE 5.0 mph 12.0 mph 96% 0.00 in 0.00 W/m2
23:13 36.9 °F 35.9 °F 29.96 in ESE 2.0 mph 9.0 mph 96% 0.00 in 0.00 W/m2
23:18 36.8 °F 35.8 °F 29.96 in Calm   4.0 mph 96% 0.00 in 0.00 W/m2
23:23 36.7 °F 35.7 °F 29.96 in Calm   7.0 mph 96% 0.00 in 0.00 W/m2
23:28 36.6 °F 35.6 °F 29.96 in Calm   5.0 mph 96% 0.00 in 0.00 W/m2
23:33 36.5 °F 35.5 °F 29.96 in Calm   4.0 mph 96% 0.00 in 0.00 W/m2
23:38 36.4 °F 35.4 °F 29.96 in ESE 5.0 mph 9.0 mph 96% 0.00 in 0.00 W/m2
23:43 36.3 °F 35.3 °F 29.96 in ESE 1.0 mph 9.0 mph 96% 0.00 in 0.00 W/m2
23:48 36.2 °F 35.2 °F 29.96 in Calm   4.0 mph 96% 0.00 in 0.00 W/m2
23:53 36.0 °F 35.0 °F 29.96 in ESE 7.0 mph 7.0 mph 96% 0.00 in 0.00 W/m2
23:58 35.9 °F 34.9 °F 29.96 in ESE 4.0 mph 9.0 mph 96% 0.00 in 0.00 W/m2
Foresthill Weather
 WU-history PHP script courtesy of   Juneau County Weather.
powered by Cumulus v1.9.3 (1059)
Ambient Weather VWS v14.00
Top Contact Website Map Copyright © 2007 - 2018 Foresthillweather.com Never base important decisions on this or any weather information obtained from the Internet